createdAt,value
2022-09-25T00:01:01.238Z,7.33
2022-09-25T00:03:34.370Z,8.37
2022-09-25T00:06:11.416Z,7.27
2022-09-25T00:08:44.853Z,8.43
2022-09-25T00:11:24.050Z,7.97
2022-09-25T00:13:58.161Z,9.33
2022-09-25T00:16:32.706Z,9.17
2022-09-25T00:19:23.894Z,7.00
2022-09-25T00:21:56.632Z,8.95
2022-09-25T00:24:29.329Z,9.50
2022-09-25T00:27:02.095Z,7.70
2022-09-25T00:29:36.860Z,7.50
2022-09-25T00:32:13.069Z,8.57
2022-09-25T00:34:45.922Z,8.70
2022-09-25T00:37:18.603Z,7.57
2022-09-25T00:39:51.398Z,7.20
2022-09-25T00:42:24.172Z,7.40
2022-09-25T00:45:07.593Z,7.50
2022-09-25T00:48:02.201Z,8.10
2022-09-25T00:50:52.192Z,8.00
2022-09-25T00:53:32.983Z,7.03
2022-09-25T00:56:08.880Z,9.50
2022-09-25T00:58:42.459Z,9.47
2022-09-25T01:01:15.241Z,8.30
2022-09-25T01:03:48.258Z,8.80
2022-09-25T01:06:22.086Z,10.17
2022-09-25T01:08:56.377Z,8.93
2022-09-25T01:11:30.991Z,9.10
2022-09-25T01:14:07.108Z,8.90
2022-09-25T01:16:45.992Z,9.17
2022-09-25T01:19:37.038Z,11.33
2022-09-25T01:22:36.417Z,10.13
2022-09-25T01:25:35.734Z,8.20
2022-09-25T01:28:39.427Z,11.53
2022-09-25T01:31:38.467Z,11.30
2022-09-25T01:34:20.444Z,10.97
2022-09-25T01:37:08.280Z,10.33
2022-09-25T01:39:49.122Z,9.60
2022-09-25T01:42:27.821Z,9.83
2022-09-25T01:45:07.647Z,10.17
2022-09-25T01:47:41.753Z,9.87
2022-09-25T01:50:25.119Z,9.23
2022-09-25T01:53:01.260Z,11.57
2022-09-25T01:55:45.291Z,13.23
2022-09-25T01:58:24.283Z,10.90
2022-09-25T02:01:12.260Z,10.87
2022-09-25T02:03:50.662Z,14.17
2022-09-25T02:06:24.764Z,11.90
2022-09-25T02:09:03.232Z,13.30
2022-09-25T02:11:43.452Z,14.57
2022-09-25T02:14:22.834Z,14.27
2022-09-25T02:16:58.987Z,12.23
2022-09-25T02:19:50.209Z,12.23
2022-09-25T02:22:29.043Z,14.90
2022-09-25T02:25:12.721Z,14.00
2022-09-25T02:27:46.243Z,13.80
2022-09-25T02:30:19.665Z,14.30
2022-09-25T02:32:54.189Z,13.63
2022-09-25T02:35:28.336Z,11.80
2022-09-25T02:38:01.056Z,12.50
2022-09-25T02:40:45.696Z,11.33
2022-09-25T02:43:21.851Z,10.77
2022-09-25T02:45:57.610Z,10.47
2022-09-25T02:48:45.628Z,9.80
2022-09-25T02:51:30.145Z,11.80
2022-09-25T02:54:12.310Z,13.20
2022-09-25T02:57:04.525Z,11.67
2022-09-25T02:59:45.691Z,14.93
2022-09-25T03:02:20.045Z,12.60
2022-09-25T03:04:53.395Z,12.03
2022-09-25T03:07:26.775Z,13.27
2022-09-25T03:09:59.959Z,12.57
2022-09-25T03:12:36.912Z,13.97
2022-09-25T03:15:11.768Z,12.80
2022-09-25T03:17:44.928Z,13.90
2022-09-25T03:20:18.114Z,12.00
2022-09-25T03:22:50.777Z,12.57
2022-09-25T03:25:23.531Z,12.07
2022-09-25T03:27:59.257Z,12.83
2022-09-25T03:30:32.096Z,9.80
2022-09-25T03:33:05.094Z,10.67
2022-09-25T03:35:38.914Z,11.63
2022-09-25T03:38:12.395Z,11.43
2022-09-25T03:40:45.398Z,10.50
2022-09-25T03:43:18.140Z,10.73
2022-09-25T03:45:51.466Z,14.10
2022-09-25T03:48:24.295Z,13.33
2022-09-25T03:50:57.280Z,10.80
2022-09-25T03:53:31.557Z,13.10
2022-09-25T03:56:07.229Z,10.87
2022-09-25T03:58:40.664Z,11.70
2022-09-25T04:01:14.889Z,11.77
2022-09-25T04:03:48.150Z,11.43
2022-09-25T04:06:24.454Z,10.40
2022-09-25T04:08:57.234Z,13.68
2022-09-25T04:11:30.034Z,12.93
2022-09-25T04:14:02.684Z,12.70
2022-09-25T04:16:35.556Z,12.50
2022-09-25T04:19:08.313Z,12.07
2022-09-25T04:21:41.076Z,12.10
2022-09-25T04:24:32.353Z,11.93
2022-09-25T04:27:05.255Z,11.07
2022-09-25T04:29:37.932Z,11.37
2022-09-25T04:32:29.341Z,12.13
2022-09-25T04:35:02.250Z,12.10
2022-09-25T04:37:35.167Z,11.80
2022-09-25T04:40:08.558Z,11.70
2022-09-25T04:42:43.038Z,11.60
2022-09-25T04:45:15.870Z,11.37
2022-09-25T04:47:48.534Z,14.03
2022-09-25T04:50:22.437Z,12.50
2022-09-25T04:52:57.807Z,13.27
2022-09-25T04:55:30.586Z,12.07
2022-09-25T04:58:03.251Z,13.80
2022-09-25T05:00:37.298Z,14.47
2022-09-25T05:03:10.135Z,12.60
2022-09-25T05:05:43.069Z,16.50
2022-09-25T05:08:15.996Z,14.57
2022-09-25T05:10:53.779Z,12.33
2022-09-25T05:13:28.005Z,16.73
2022-09-25T05:16:01.142Z,14.13
2022-09-25T05:18:33.928Z,15.47
2022-09-25T05:21:06.601Z,15.67
2022-09-25T05:23:39.317Z,14.10
2022-09-25T05:26:12.021Z,14.73
2022-09-25T05:28:48.161Z,14.37
2022-09-25T05:31:20.839Z,15.07
2022-09-25T05:33:54.345Z,14.67
2022-09-25T05:36:26.989Z,13.77
2022-09-25T05:39:00.594Z,14.63
2022-09-25T05:41:34.678Z,16.20
2022-09-25T05:44:09.921Z,15.13
2022-09-25T05:46:42.730Z,14.60
2022-09-25T05:49:15.469Z,16.47
2022-09-25T05:51:48.351Z,16.07
2022-09-25T05:54:20.992Z,16.50
2022-09-25T05:56:53.878Z,16.57
2022-09-25T05:59:26.519Z,16.97
2022-09-25T06:01:59.284Z,17.20
2022-09-25T06:04:32.051Z,14.07
2022-09-25T06:07:05.259Z,15.70
2022-09-25T06:09:37.927Z,14.67
2022-09-25T06:12:10.588Z,15.97
2022-09-25T06:14:43.225Z,14.57
2022-09-25T06:17:15.919Z,14.13
2022-09-25T06:19:49.106Z,13.23
2022-09-25T06:22:21.762Z,13.90
2022-09-25T06:24:54.452Z,13.40
2022-09-25T06:27:27.516Z,14.67
2022-09-25T06:30:00.191Z,13.57
2022-09-25T06:32:32.846Z,15.03
2022-09-25T06:35:06.494Z,11.67
2022-09-25T06:37:39.130Z,11.90
2022-09-25T06:40:11.893Z,13.87
2022-09-25T06:42:46.027Z,13.47
2022-09-25T06:45:18.827Z,12.50
2022-09-25T06:47:51.462Z,13.83
2022-09-25T06:50:30.029Z,13.17
2022-09-25T06:53:02.747Z,12.27
2022-09-25T06:55:35.427Z,12.10
2022-09-25T06:58:11.069Z,10.57
2022-09-25T07:00:48.554Z,12.88
2022-09-25T07:03:40.033Z,10.67
2022-09-25T07:06:21.599Z,9.63
2022-09-25T07:08:56.909Z,11.80
2022-09-25T07:11:31.355Z,10.17
2022-09-25T07:14:04.053Z,10.57
2022-09-25T07:16:36.918Z,9.73
2022-09-25T07:19:09.578Z,11.00
2022-09-25T07:21:43.501Z,10.97
2022-09-25T07:24:16.170Z,10.67
2022-09-25T07:26:49.065Z,10.47
2022-09-25T07:29:21.731Z,10.40
2022-09-25T07:31:54.522Z,10.33
2022-09-25T07:34:27.187Z,10.37
2022-09-25T07:36:59.914Z,12.20
2022-09-25T07:39:32.626Z,11.07
2022-09-25T07:42:05.359Z,10.07
2022-09-25T07:44:42.449Z,11.73
2022-09-25T07:47:19.429Z,9.87
2022-09-25T07:49:52.192Z,10.27
2022-09-25T07:52:25.125Z,10.77
2022-09-25T07:54:58.595Z,9.87
2022-09-25T07:57:31.317Z,12.23
2022-09-25T08:00:05.869Z,10.37
2022-09-25T08:02:44.702Z,8.67
2022-09-25T08:05:17.543Z,9.33
2022-09-25T08:07:50.234Z,8.17
2022-09-25T08:10:23.570Z,10.27
2022-09-25T08:12:56.586Z,10.67
2022-09-25T08:15:29.559Z,10.87
2022-09-25T08:18:02.374Z,9.50
2022-09-25T08:20:39.725Z,9.60
2022-09-25T08:23:12.515Z,8.40
2022-09-25T08:25:49.215Z,8.43
2022-09-25T08:28:23.013Z,7.60
2022-09-25T08:30:59.398Z,7.73
2022-09-25T08:33:34.462Z,9.00
2022-09-25T08:36:07.207Z,8.57
2022-09-25T08:38:40.161Z,7.53
2022-09-25T08:41:21.169Z,8.07
2022-09-25T08:44:09.250Z,7.97
2022-09-25T08:47:09.239Z,7.70
2022-09-25T08:49:49.968Z,6.50
2022-09-25T08:52:22.992Z,4.23
2022-09-25T08:54:55.732Z,5.67
2022-09-25T08:57:45.087Z,4.17
2022-09-25T09:00:22.581Z,4.37
2022-09-25T09:02:58.159Z,3.77
2022-09-25T09:05:37.309Z,3.87
2022-09-25T09:08:18.171Z,3.63
2022-09-25T09:11:17.907Z,4.33
2022-09-25T09:13:59.994Z,3.30
2022-09-25T09:16:59.661Z,3.40
2022-09-25T09:19:33.278Z,2.40
2022-09-25T09:22:11.369Z,3.17
2022-09-25T09:25:24.320Z,3.33
2022-09-25T09:28:42.652Z,2.30
2022-09-25T09:31:35.085Z,2.97
2022-09-25T09:34:40.878Z,2.80
2022-09-25T09:37:31.433Z,2.40
2022-09-25T09:40:19.187Z,2.07
2022-09-25T09:43:16.881Z,3.57
2022-09-25T09:45:56.996Z,2.27
2022-09-25T09:48:53.375Z,2.80
2022-09-25T09:51:39.075Z,2.08
2022-09-25T09:54:21.905Z,2.17
2022-09-25T09:56:57.150Z,2.00
2022-09-25T09:59:42.074Z,2.07
2022-09-25T10:02:32.880Z,2.10
2022-09-25T10:05:16.139Z,1.50
2022-09-25T10:07:51.131Z,2.00
2022-09-25T10:10:35.278Z,1.93
2022-09-25T10:13:23.077Z,1.83
2022-09-25T10:16:11.190Z,2.20
2022-09-25T10:18:52.303Z,1.50
2022-09-25T10:21:30.076Z,1.43
2022-09-25T10:24:03.261Z,1.37
2022-09-25T10:26:40.139Z,1.40
2022-09-25T10:29:21.733Z,1.40
2022-09-25T10:32:04.234Z,1.50
2022-09-25T10:34:37.845Z,1.83
2022-09-25T10:37:20.253Z,2.10
2022-09-25T10:40:05.357Z,2.90
2022-09-25T10:42:42.274Z,2.50
2022-09-25T10:45:30.850Z,2.40
2022-09-25T10:48:40.200Z,3.88
2022-09-25T10:51:17.339Z,2.90
2022-09-25T10:53:53.175Z,3.60
2022-09-25T10:56:38.758Z,3.63
2022-09-25T10:59:21.346Z,2.90
2022-09-25T11:01:56.196Z,3.80
2022-09-25T11:04:32.223Z,3.27
2022-09-25T11:07:15.904Z,3.33
2022-09-25T11:09:48.794Z,3.83
2022-09-25T11:12:27.385Z,4.03
2022-09-25T11:15:05.989Z,3.03
2022-09-25T11:17:43.936Z,4.57
2022-09-25T11:20:17.539Z,2.30
2022-09-25T11:23:22.000Z,2.73
2022-09-25T11:26:01.218Z,2.63
2022-09-25T11:28:44.721Z,5.97
2022-09-25T11:31:33.539Z,6.27
2022-09-25T11:34:23.942Z,4.47
2022-09-25T11:37:27.294Z,2.90
2022-09-25T11:40:40.534Z,3.10
2022-09-25T11:43:19.131Z,20.92
2022-09-25T11:45:59.348Z,8.17
2022-09-25T11:49:11.382Z,3.67
2022-09-25T11:51:56.871Z,2.40
2022-09-25T11:54:46.331Z,3.03
2022-09-25T11:57:36.343Z,3.27
2022-09-25T12:00:20.969Z,1.93
2022-09-25T12:02:56.523Z,2.37
2022-09-25T12:06:05.425Z,1.97
2022-09-25T12:08:41.409Z,4.60
2022-09-25T12:11:43.134Z,1.83
2022-09-25T12:14:27.380Z,2.87
2022-09-25T12:17:05.015Z,2.30
2022-09-25T12:20:00.840Z,2.20
2022-09-25T12:23:00.201Z,3.17
2022-09-25T12:25:44.020Z,3.47
2022-09-25T12:28:24.862Z,2.70
2022-09-25T12:31:27.537Z,2.53
2022-09-25T12:34:14.708Z,2.33
2022-09-25T12:36:54.220Z,3.53
2022-09-25T12:39:58.162Z,6.80
2022-09-25T12:42:59.110Z,2.25
2022-09-25T12:45:53.782Z,3.30
2022-09-25T12:48:37.494Z,3.00
2022-09-25T12:51:19.311Z,3.50
2022-09-25T12:54:01.417Z,2.83
2022-09-25T12:56:44.810Z,2.90
2022-09-25T12:59:40.305Z,2.35
2022-09-25T13:02:40.784Z,3.77
2022-09-25T13:05:46.199Z,3.93
2022-09-25T13:08:25.502Z,2.17
2022-09-25T13:11:14.637Z,1.70
2022-09-25T13:13:53.546Z,1.77
2022-09-25T13:16:26.418Z,2.03
2022-09-25T13:19:23.728Z,1.90
2022-09-25T13:22:03.577Z,3.63
2022-09-25T13:25:13.674Z,3.83
2022-09-25T13:27:47.065Z,2.58
2022-09-25T13:30:29.357Z,2.22
2022-09-25T13:33:03.979Z,2.20
2022-09-25T13:35:36.720Z,3.20
2022-09-25T13:38:38.535Z,4.57
2022-09-25T13:41:13.622Z,2.22
2022-09-25T13:43:49.419Z,1.80
2022-09-25T13:46:23.566Z,3.15
2022-09-25T13:49:35.423Z,3.40
2022-09-25T13:52:29.145Z,4.00
2022-09-25T13:55:28.271Z,3.45
2022-09-25T13:58:02.047Z,3.30
2022-09-25T14:00:37.780Z,3.28
2022-09-25T14:03:36.546Z,1.92
2022-09-25T14:06:36.985Z,2.85
2022-09-25T14:09:18.493Z,2.20
2022-09-25T14:12:07.475Z,2.10
2022-09-25T14:14:52.722Z,2.22
2022-09-25T14:17:30.288Z,1.50
2022-09-25T14:20:07.155Z,2.25
2022-09-25T14:22:44.130Z,2.00
2022-09-25T14:25:37.314Z,3.47
2022-09-25T14:28:24.333Z,1.85
2022-09-25T14:31:35.332Z,2.05
2022-09-25T14:34:37.645Z,2.00
2022-09-25T14:37:44.632Z,1.67
2022-09-25T14:40:52.910Z,1.70
2022-09-25T14:43:47.217Z,5.13
2022-09-25T14:46:21.796Z,1.70
2022-09-25T14:49:13.178Z,3.13
2022-09-25T14:51:47.639Z,2.38
2022-09-25T14:54:25.729Z,2.67
2022-09-25T14:56:59.182Z,1.88
2022-09-25T14:59:45.705Z,1.40
2022-09-25T15:02:33.967Z,1.88
2022-09-25T15:05:22.331Z,1.30
2022-09-25T15:07:58.810Z,1.23
2022-09-25T15:10:38.827Z,1.48
2022-09-25T15:13:20.147Z,2.58
2022-09-25T15:16:15.313Z,1.33
2022-09-25T15:18:55.086Z,2.27
2022-09-25T15:21:31.017Z,2.00
2022-09-25T15:24:09.692Z,1.60
2022-09-25T15:26:49.456Z,0.87
2022-09-25T15:29:23.823Z,1.85
2022-09-25T15:31:56.739Z,1.38
2022-09-25T15:34:31.115Z,0.77
2022-09-25T15:37:29.064Z,1.33
2022-09-25T15:40:22.961Z,1.20
2022-09-25T15:42:56.544Z,2.47
2022-09-25T15:45:36.497Z,1.95
2022-09-25T15:48:18.110Z,1.73
2022-09-25T15:50:52.965Z,1.27
2022-09-25T15:53:28.218Z,0.60
2022-09-25T15:56:16.379Z,2.00
2022-09-25T15:58:54.776Z,2.27
2022-09-25T16:01:49.143Z,1.90
2022-09-25T16:04:42.738Z,1.27
2022-09-25T16:07:36.070Z,1.60
2022-09-25T16:10:30.858Z,0.90
2022-09-25T16:13:03.718Z,3.00
2022-09-25T16:15:45.190Z,2.00
2022-09-25T16:18:24.421Z,1.80
2022-09-25T16:21:13.586Z,0.67
2022-09-25T16:23:56.401Z,1.33
2022-09-25T16:26:39.185Z,0.83
2022-09-25T16:29:11.918Z,3.00
2022-09-25T16:31:45.585Z,1.33
2022-09-25T16:34:26.838Z,1.10
2022-09-25T16:37:03.173Z,0.40
2022-09-25T16:39:37.931Z,2.30
2022-09-25T16:42:29.297Z,0.90
2022-09-25T16:45:16.721Z,1.70
2022-09-25T16:47:50.335Z,1.40
2022-09-25T16:50:23.181Z,0.90
2022-09-25T16:52:55.824Z,0.90
2022-09-25T16:55:29.230Z,3.00
2022-09-25T16:58:03.209Z,0.90
2022-09-25T17:00:35.990Z,7.03
2022-09-25T17:03:11.619Z,20.93
2022-09-25T17:05:44.673Z,2.00
2022-09-25T17:08:20.416Z,3.57
2022-09-25T17:10:53.212Z,1.70
2022-09-25T17:13:28.511Z,0.50
2022-09-25T17:16:01.362Z,1.43
2022-09-25T17:18:35.210Z,0.93
2022-09-25T17:21:13.604Z,1.50
2022-09-25T17:23:47.263Z,0.63
2022-09-25T17:26:22.585Z,0.50
2022-09-25T17:28:55.325Z,1.07
2022-09-25T17:31:28.143Z,1.13
2022-09-25T17:34:01.086Z,1.03
2022-09-25T17:36:33.896Z,0.50
2022-09-25T17:39:06.538Z,0.67
2022-09-25T17:41:39.795Z,2.50
2022-09-25T17:44:17.515Z,4.53
2022-09-25T17:46:51.840Z,0.70
2022-09-25T17:49:25.441Z,1.23
2022-09-25T17:51:58.380Z,2.03
2022-09-25T17:54:31.478Z,0.53
2022-09-25T17:57:04.994Z,0.50
2022-09-25T17:59:38.121Z,4.23
2022-09-25T18:02:16.579Z,2.17
2022-09-25T18:04:49.487Z,2.10
2022-09-25T18:07:23.139Z,1.43
2022-09-25T18:09:55.791Z,0.83
2022-09-25T18:12:28.563Z,2.23
2022-09-25T18:15:01.331Z,1.20
2022-09-25T18:17:34.159Z,1.10
2022-09-25T18:20:29.478Z,1.73
2022-09-25T18:23:02.200Z,1.00
2022-09-25T18:25:38.693Z,2.60
2022-09-25T18:28:11.759Z,1.90
2022-09-25T18:30:44.471Z,1.13
2022-09-25T18:33:17.256Z,1.33
2022-09-25T18:35:49.954Z,0.97
2022-09-25T18:38:22.722Z,1.03
2022-09-25T18:40:55.599Z,4.03
2022-09-25T18:43:29.038Z,0.90
2022-09-25T18:46:02.625Z,2.47
2022-09-25T18:48:37.417Z,1.43
2022-09-25T18:51:10.745Z,1.10
2022-09-25T18:53:43.560Z,1.40
2022-09-25T18:56:16.963Z,1.20
2022-09-25T18:58:51.767Z,6.07
2022-09-25T19:01:24.823Z,2.30
2022-09-25T19:03:57.614Z,1.63
2022-09-25T19:06:30.585Z,1.73
2022-09-25T19:09:04.983Z,0.70
2022-09-25T19:11:38.102Z,1.63
2022-09-25T19:14:14.649Z,1.50
2022-09-25T19:16:47.556Z,3.23
2022-09-25T19:19:20.472Z,1.00
2022-09-25T19:21:53.152Z,1.83
2022-09-25T19:24:25.872Z,1.10
2022-09-25T19:26:58.524Z,1.57
2022-09-25T19:29:35.684Z,3.57
2022-09-25T19:32:11.087Z,1.50
2022-09-25T19:34:44.540Z,4.33
2022-09-25T19:37:18.508Z,2.10
2022-09-25T19:40:09.954Z,1.53
2022-09-25T19:42:43.132Z,2.30
2022-09-25T19:45:16.724Z,2.97
2022-09-25T19:47:49.443Z,2.40
2022-09-25T19:50:22.223Z,4.60
2022-09-25T19:52:54.929Z,2.47
2022-09-25T19:55:27.762Z,2.50
2022-09-25T19:58:00.455Z,1.53
2022-09-25T20:00:34.039Z,2.77
2022-09-25T20:03:07.071Z,3.10
2022-09-25T20:05:41.419Z,4.47
2022-09-25T20:08:14.202Z,2.20
2022-09-25T20:10:46.902Z,2.17
2022-09-25T20:13:19.784Z,3.37
2022-09-25T20:15:54.753Z,2.67
2022-09-25T20:18:27.589Z,2.53
2022-09-25T20:21:03.353Z,3.00
2022-09-25T20:23:36.304Z,1.73
2022-09-25T20:26:15.579Z,3.07
2022-09-25T20:28:52.909Z,4.47
2022-09-25T20:31:27.603Z,3.20
2022-09-25T20:34:00.409Z,3.53
2022-09-25T20:36:33.181Z,2.30
2022-09-25T20:39:06.520Z,2.37
2022-09-25T20:41:39.787Z,2.27
2022-09-25T20:44:12.623Z,5.37
2022-09-25T20:46:45.467Z,3.03
2022-09-25T20:49:20.087Z,2.70
2022-09-25T20:51:53.045Z,4.70
2022-09-25T20:54:25.873Z,3.20
2022-09-25T20:56:58.689Z,3.63
2022-09-25T20:59:31.380Z,3.80
2022-09-25T21:02:05.371Z,3.27
2022-09-25T21:04:38.213Z,3.87
2022-09-25T21:07:16.609Z,2.90
2022-09-25T21:09:49.858Z,4.47
2022-09-25T21:12:22.616Z,4.10
2022-09-25T21:14:55.384Z,2.33
2022-09-25T21:17:28.184Z,3.17
2022-09-25T21:20:01.198Z,2.17
2022-09-25T21:22:34.069Z,3.90
2022-09-25T21:25:07.308Z,2.13
2022-09-25T21:27:40.117Z,2.30
2022-09-25T21:30:13.239Z,2.50
2022-09-25T21:32:45.882Z,4.40
2022-09-25T21:35:18.664Z,4.07
2022-09-25T21:37:51.450Z,3.97
2022-09-25T21:40:24.236Z,3.07
2022-09-25T21:42:57.118Z,4.07
2022-09-25T21:45:31.417Z,6.93
2022-09-25T21:48:04.272Z,2.37
2022-09-25T21:50:36.917Z,4.47
2022-09-25T21:53:09.674Z,3.73
2022-09-25T21:55:42.458Z,5.13
2022-09-25T21:58:15.537Z,2.97
2022-09-25T22:00:48.414Z,2.97
2022-09-25T22:03:21.182Z,4.10
2022-09-25T22:06:04.715Z,3.10
2022-09-25T22:08:39.323Z,2.70
2022-09-25T22:11:12.599Z,4.00
2022-09-25T22:13:47.135Z,4.03
2022-09-25T22:16:28.793Z,3.10
2022-09-25T22:19:13.113Z,2.73
2022-09-25T22:21:48.501Z,3.23
2022-09-25T22:24:22.501Z,4.33
2022-09-25T22:26:56.062Z,3.67
2022-09-25T22:29:29.793Z,3.80
2022-09-25T22:32:02.686Z,3.83
2022-09-25T22:34:35.481Z,3.67
2022-09-25T22:37:08.122Z,3.20
2022-09-25T22:39:41.240Z,2.83
2022-09-25T22:42:13.932Z,3.30
2022-09-25T22:44:46.733Z,3.20
2022-09-25T22:47:19.422Z,2.87
2022-09-25T22:49:52.186Z,2.60
2022-09-25T22:52:24.883Z,1.47
2022-09-25T22:54:57.575Z,2.60
2022-09-25T22:57:30.323Z,2.13
2022-09-25T23:00:03.336Z,3.30
2022-09-25T23:02:36.585Z,2.57
2022-09-25T23:05:09.496Z,3.13
2022-09-25T23:07:42.283Z,2.83
2022-09-25T23:10:15.382Z,2.37
2022-09-25T23:12:48.092Z,2.53
2022-09-25T23:15:20.900Z,2.47
2022-09-25T23:17:53.662Z,2.00
2022-09-25T23:20:26.590Z,5.70
2022-09-25T23:22:59.848Z,3.87
2022-09-25T23:25:33.081Z,2.57
2022-09-25T23:28:05.912Z,2.13
2022-09-25T23:30:38.742Z,4.60
2022-09-25T23:33:11.559Z,2.93
2022-09-25T23:35:44.218Z,2.13
2022-09-25T23:38:17.007Z,1.87
2022-09-25T23:40:49.859Z,4.37
2022-09-25T23:43:22.801Z,2.95
2022-09-25T23:45:55.785Z,2.00
2022-09-25T23:48:28.658Z,4.10
2022-09-25T23:51:01.393Z,3.20
2022-09-25T23:53:34.807Z,2.53
2022-09-25T23:56:16.559Z,2.33
2022-09-25T23:58:50.442Z,2.80
